sensor_id;sensor_type;location;lat;lon;timestamp;P1;durP1;ratioP1;P2;durP2;ratioP2
13331;SDS011;6735;51.456;12.626;2023-05-02T00:00:07;10.40;;;9.50;;
13331;SDS011;6735;51.456;12.626;2023-05-02T00:02:33;10.50;;;9.60;;
13331;SDS011;6735;51.456;12.626;2023-05-02T00:05:00;10.20;;;9.20;;
13331;SDS011;6735;51.456;12.626;2023-05-02T00:07:25;10.33;;;9.10;;
13331;SDS011;6735;51.456;12.626;2023-05-02T00:09:51;9.70;;;8.90;;
13331;SDS011;6735;51.456;12.626;2023-05-02T00:12:17;10.53;;;8.60;;
13331;SDS011;6735;51.456;12.626;2023-05-02T00:14:42;9.30;;;8.40;;
13331;SDS011;6735;51.456;12.626;2023-05-02T00:17:08;8.93;;;8.03;;
13331;SDS011;6735;51.456;12.626;2023-05-02T00:19:37;9.83;;;8.40;;
13331;SDS011;6735;51.456;12.626;2023-05-02T00:22:03;8.63;;;7.83;;
13331;SDS011;6735;51.456;12.626;2023-05-02T00:24:29;9.20;;;8.33;;
13331;SDS011;6735;51.456;12.626;2023-05-02T00:26:54;8.60;;;7.73;;
13331;SDS011;6735;51.456;12.626;2023-05-02T00:29:20;9.10;;;8.30;;
13331;SDS011;6735;51.456;12.626;2023-05-02T00:31:45;8.70;;;7.90;;
13331;SDS011;6735;51.456;12.626;2023-05-02T00:34:11;10.13;;;8.10;;
13331;SDS011;6735;51.456;12.626;2023-05-02T00:36:36;8.97;;;8.07;;
13331;SDS011;6735;51.456;12.626;2023-05-02T00:39:02;8.43;;;7.63;;
13331;SDS011;6735;51.456;12.626;2023-05-02T00:41:28;8.23;;;7.50;;
13331;SDS011;6735;51.456;12.626;2023-05-02T00:43:54;8.83;;;8.00;;
13331;SDS011;6735;51.456;12.626;2023-05-02T00:46:19;9.27;;;8.47;;
13331;SDS011;6735;51.456;12.626;2023-05-02T00:48:45;8.33;;;7.63;;
13331;SDS011;6735;51.456;12.626;2023-05-02T00:51:10;8.30;;;7.50;;
13331;SDS011;6735;51.456;12.626;2023-05-02T00:53:37;8.90;;;8.03;;
13331;SDS011;6735;51.456;12.626;2023-05-02T00:56:04;8.43;;;7.63;;
13331;SDS011;6735;51.456;12.626;2023-05-02T00:58:29;8.40;;;7.70;;
13331;SDS011;6735;51.456;12.626;2023-05-02T01:01:10;8.37;;;7.63;;
13331;SDS011;6735;51.456;12.626;2023-05-02T01:06:10;8.87;;;7.50;;
13331;SDS011;6735;51.456;12.626;2023-05-02T01:08:59;9.13;;;8.30;;
13331;SDS011;6735;51.456;12.626;2023-05-02T01:11:35;9.33;;;8.60;;
13331;SDS011;6735;51.456;12.626;2023-05-02T01:14:27;8.50;;;7.73;;
13331;SDS011;6735;51.456;12.626;2023-05-02T01:16:55;8.80;;;7.90;;
13331;SDS011;6735;51.456;12.626;2023-05-02T01:19:24;8.67;;;7.90;;
13331;SDS011;6735;51.456;12.626;2023-05-02T01:21:53;9.80;;;8.47;;
13331;SDS011;6735;51.456;12.626;2023-05-02T01:24:24;9.20;;;8.30;;
13331;SDS011;6735;51.456;12.626;2023-05-02T01:27:12;8.93;;;8.13;;
13331;SDS011;6735;51.456;12.626;2023-05-02T01:29:49;8.97;;;8.07;;
13331;SDS011;6735;51.456;12.626;2023-05-02T01:32:15;9.47;;;8.57;;
13331;SDS011;6735;51.456;12.626;2023-05-02T01:34:44;9.40;;;8.50;;
13331;SDS011;6735;51.456;12.626;2023-05-02T01:37:11;9.00;;;8.20;;
13331;SDS011;6735;51.456;12.626;2023-05-02T01:39:39;9.63;;;8.63;;
13331;SDS011;6735;51.456;12.626;2023-05-02T01:42:06;9.17;;;8.37;;
13331;SDS011;6735;51.456;12.626;2023-05-02T01:44:31;8.47;;;7.77;;
13331;SDS011;6735;51.456;12.626;2023-05-02T01:46:59;9.70;;;8.70;;
13331;SDS011;6735;51.456;12.626;2023-05-02T01:49:26;9.10;;;8.30;;
13331;SDS011;6735;51.456;12.626;2023-05-02T01:51:55;9.10;;;8.40;;
13331;SDS011;6735;51.456;12.626;2023-05-02T01:54:27;9.53;;;8.53;;
13331;SDS011;6735;51.456;12.626;2023-05-02T01:56:53;9.40;;;8.60;;
13331;SDS011;6735;51.456;12.626;2023-05-02T01:59:20;10.73;;;8.77;;
13331;SDS011;6735;51.456;12.626;2023-05-02T02:01:47;9.53;;;8.60;;
13331;SDS011;6735;51.456;12.626;2023-05-02T02:04:15;9.60;;;8.70;;
13331;SDS011;6735;51.456;12.626;2023-05-02T02:06:45;10.33;;;9.23;;
13331;SDS011;6735;51.456;12.626;2023-05-02T02:09:14;9.33;;;8.53;;
13331;SDS011;6735;51.456;12.626;2023-05-02T02:11:45;9.93;;;8.97;;
13331;SDS011;6735;51.456;12.626;2023-05-02T02:14:19;9.97;;;8.97;;
13331;SDS011;6735;51.456;12.626;2023-05-02T02:16:49;9.60;;;8.70;;
13331;SDS011;6735;51.456;12.626;2023-05-02T02:19:19;9.70;;;8.83;;
13331;SDS011;6735;51.456;12.626;2023-05-02T02:21:47;9.67;;;8.63;;
13331;SDS011;6735;51.456;12.626;2023-05-02T02:24:15;9.47;;;8.67;;
13331;SDS011;6735;51.456;12.626;2023-05-02T02:26:44;9.60;;;8.70;;
13331;SDS011;6735;51.456;12.626;2023-05-02T02:29:10;9.17;;;8.37;;
13331;SDS011;6735;51.456;12.626;2023-05-02T02:31:36;9.97;;;9.10;;
13331;SDS011;6735;51.456;12.626;2023-05-02T02:34:03;9.10;;;8.27;;
13331;SDS011;6735;51.456;12.626;2023-05-02T02:39:03;10.73;;;9.03;;
13331;SDS011;6735;51.456;12.626;2023-05-02T02:41:48;9.27;;;8.47;;
13331;SDS011;6735;51.456;12.626;2023-05-02T02:48:07;9.23;;;8.33;;
13331;SDS011;6735;51.456;12.626;2023-05-02T02:50:29;8.83;;;7.93;;
13331;SDS011;6735;51.456;12.626;2023-05-02T02:52:59;8.87;;;7.90;;
13331;SDS011;6735;51.456;12.626;2023-05-02T02:55:39;8.27;;;7.53;;
13331;SDS011;6735;51.456;12.626;2023-05-02T02:58:30;8.87;;;7.73;;
13331;SDS011;6735;51.456;12.626;2023-05-02T03:01:19;9.57;;;8.17;;
13331;SDS011;6735;51.456;12.626;2023-05-02T03:03:46;8.23;;;7.53;;
13331;SDS011;6735;51.456;12.626;2023-05-02T03:06:13;8.53;;;7.73;;
13331;SDS011;6735;51.456;12.626;2023-05-02T03:08:40;8.43;;;7.63;;
13331;SDS011;6735;51.456;12.626;2023-05-02T03:11:07;8.33;;;7.53;;
13331;SDS011;6735;51.456;12.626;2023-05-02T03:13:33;8.60;;;7.73;;
13331;SDS011;6735;51.456;12.626;2023-05-02T03:16:05;9.77;;;8.03;;
13331;SDS011;6735;51.456;12.626;2023-05-02T03:18:52;10.57;;;8.33;;
13331;SDS011;6735;51.456;12.626;2023-05-02T03:21:17;8.03;;;7.33;;
13331;SDS011;6735;51.456;12.626;2023-05-02T03:23:43;8.13;;;7.33;;
13331;SDS011;6735;51.456;12.626;2023-05-02T03:26:08;7.50;;;6.80;;
13331;SDS011;6735;51.456;12.626;2023-05-02T03:28:33;10.70;;;6.80;;
13331;SDS011;6735;51.456;12.626;2023-05-02T03:30:59;7.60;;;6.90;;
13331;SDS011;6735;51.456;12.626;2023-05-02T03:33:24;9.33;;;6.80;;
13331;SDS011;6735;51.456;12.626;2023-05-02T03:35:50;9.67;;;7.30;;
13331;SDS011;6735;51.456;12.626;2023-05-02T03:38:15;11.67;;;7.30;;
13331;SDS011;6735;51.456;12.626;2023-05-02T03:40:41;7.37;;;6.77;;
13331;SDS011;6735;51.456;12.626;2023-05-02T03:43:06;10.00;;;8.50;;
13331;SDS011;6735;51.456;12.626;2023-05-02T03:45:31;9.10;;;8.20;;
13331;SDS011;6735;51.456;12.626;2023-05-02T03:47:58;8.13;;;7.37;;
13331;SDS011;6735;51.456;12.626;2023-05-02T03:50:24;7.53;;;6.77;;
13331;SDS011;6735;51.456;12.626;2023-05-02T03:52:49;7.67;;;6.50;;
13331;SDS011;6735;51.456;12.626;2023-05-02T03:55:15;8.87;;;7.30;;
13331;SDS011;6735;51.456;12.626;2023-05-02T03:57:40;7.43;;;6.73;;
13331;SDS011;6735;51.456;12.626;2023-05-02T04:00:06;8.60;;;7.33;;
13331;SDS011;6735;51.456;12.626;2023-05-02T04:02:32;19.23;;;17.03;;
13331;SDS011;6735;51.456;12.626;2023-05-02T04:04:57;10.20;;;8.67;;
13331;SDS011;6735;51.456;12.626;2023-05-02T04:07:23;8.10;;;7.33;;
13331;SDS011;6735;51.456;12.626;2023-05-02T04:09:49;7.80;;;7.10;;
13331;SDS011;6735;51.456;12.626;2023-05-02T04:12:15;7.30;;;6.60;;
13331;SDS011;6735;51.456;12.626;2023-05-02T04:14:41;8.67;;;6.87;;
13331;SDS011;6735;51.456;12.626;2023-05-02T04:17:06;7.00;;;6.30;;
13331;SDS011;6735;51.456;12.626;2023-05-02T04:19:32;8.17;;;6.57;;
13331;SDS011;6735;51.456;12.626;2023-05-02T04:21:58;7.23;;;6.43;;
13331;SDS011;6735;51.456;12.626;2023-05-02T04:24:23;7.20;;;6.50;;
13331;SDS011;6735;51.456;12.626;2023-05-02T04:26:49;6.67;;;5.87;;
13331;SDS011;6735;51.456;12.626;2023-05-02T04:29:15;9.40;;;6.80;;
13331;SDS011;6735;51.456;12.626;2023-05-02T04:31:41;8.53;;;6.47;;
13331;SDS011;6735;51.456;12.626;2023-05-02T04:34:06;7.33;;;6.63;;
13331;SDS011;6735;51.456;12.626;2023-05-02T04:36:32;7.43;;;6.67;;
13331;SDS011;6735;51.456;12.626;2023-05-02T04:38:58;12.20;;;6.70;;
13331;SDS011;6735;51.456;12.626;2023-05-02T04:41:24;7.43;;;6.67;;
13331;SDS011;6735;51.456;12.626;2023-05-02T04:43:49;7.87;;;7.07;;
13331;SDS011;6735;51.456;12.626;2023-05-02T04:46:15;8.30;;;7.17;;
13331;SDS011;6735;51.456;12.626;2023-05-02T04:48:42;9.63;;;7.60;;
13331;SDS011;6735;51.456;12.626;2023-05-02T04:51:08;7.80;;;7.10;;
13331;SDS011;6735;51.456;12.626;2023-05-02T04:53:34;8.10;;;7.40;;
13331;SDS011;6735;51.456;12.626;2023-05-02T04:56:01;7.50;;;6.80;;
13331;SDS011;6735;51.456;12.626;2023-05-02T04:58:26;10.10;;;7.97;;
13331;SDS011;6735;51.456;12.626;2023-05-02T05:00:52;10.13;;;7.67;;
13331;SDS011;6735;51.456;12.626;2023-05-02T05:03:18;8.77;;;7.77;;
13331;SDS011;6735;51.456;12.626;2023-05-02T05:05:44;8.57;;;7.77;;
13331;SDS011;6735;51.456;12.626;2023-05-02T05:08:10;8.70;;;7.93;;
13331;SDS011;6735;51.456;12.626;2023-05-02T05:10:35;9.40;;;8.27;;
13331;SDS011;6735;51.456;12.626;2023-05-02T05:13:01;8.77;;;7.97;;
13331;SDS011;6735;51.456;12.626;2023-05-02T05:15:28;8.23;;;7.43;;
13331;SDS011;6735;51.456;12.626;2023-05-02T05:17:53;9.30;;;8.40;;
13331;SDS011;6735;51.456;12.626;2023-05-02T05:20:19;8.73;;;7.93;;
13331;SDS011;6735;51.456;12.626;2023-05-02T05:22:44;11.47;;;8.80;;
13331;SDS011;6735;51.456;12.626;2023-05-02T05:25:10;9.73;;;8.00;;
13331;SDS011;6735;51.456;12.626;2023-05-02T05:27:36;8.83;;;7.70;;
13331;SDS011;6735;51.456;12.626;2023-05-02T05:30:02;9.20;;;7.50;;
13331;SDS011;6735;51.456;12.626;2023-05-02T05:32:28;8.83;;;7.93;;
13331;SDS011;6735;51.456;12.626;2023-05-02T05:34:54;8.40;;;7.43;;
13331;SDS011;6735;51.456;12.626;2023-05-02T05:37:20;8.67;;;7.80;;
13331;SDS011;6735;51.456;12.626;2023-05-02T05:39:46;8.40;;;7.50;;
13331;SDS011;6735;51.456;12.626;2023-05-02T05:42:11;11.87;;;8.40;;
13331;SDS011;6735;51.456;12.626;2023-05-02T05:44:37;8.47;;;7.67;;
13331;SDS011;6735;51.456;12.626;2023-05-02T05:47:03;8.97;;;7.43;;
13331;SDS011;6735;51.456;12.626;2023-05-02T05:49:29;7.83;;;7.10;;
13331;SDS011;6735;51.456;12.626;2023-05-02T05:51:55;9.50;;;7.63;;
13331;SDS011;6735;51.456;12.626;2023-05-02T05:54:21;10.00;;;7.20;;
13331;SDS011;6735;51.456;12.626;2023-05-02T05:56:46;7.37;;;6.77;;
13331;SDS011;6735;51.456;12.626;2023-05-02T05:59:12;10.07;;;7.47;;
13331;SDS011;6735;51.456;12.626;2023-05-02T06:01:38;7.67;;;6.90;;
13331;SDS011;6735;51.456;12.626;2023-05-02T06:04:04;10.13;;;7.47;;
13331;SDS011;6735;51.456;12.626;2023-05-02T06:06:30;8.30;;;7.50;;
13331;SDS011;6735;51.456;12.626;2023-05-02T06:08:56;9.47;;;7.43;;
13331;SDS011;6735;51.456;12.626;2023-05-02T06:11:22;8.63;;;7.50;;
13331;SDS011;6735;51.456;12.626;2023-05-02T06:13:48;7.83;;;7.03;;
13331;SDS011;6735;51.456;12.626;2023-05-02T06:16:17;7.10;;;6.30;;
13331;SDS011;6735;51.456;12.626;2023-05-02T06:18:43;8.43;;;7.50;;
13331;SDS011;6735;51.456;12.626;2023-05-02T06:21:09;7.83;;;7.03;;
13331;SDS011;6735;51.456;12.626;2023-05-02T06:23:35;9.80;;;7.77;;
13331;SDS011;6735;51.456;12.626;2023-05-02T06:26:01;9.70;;;7.60;;
13331;SDS011;6735;51.456;12.626;2023-05-02T06:28:28;8.10;;;7.30;;
13331;SDS011;6735;51.456;12.626;2023-05-02T06:33:38;8.50;;;6.90;;
13331;SDS011;6735;51.456;12.626;2023-05-02T06:36:03;8.50;;;7.10;;
13331;SDS011;6735;51.456;12.626;2023-05-02T06:38:30;9.70;;;8.70;;
13331;SDS011;6735;51.456;12.626;2023-05-02T06:40:58;13.37;;;10.17;;
13331;SDS011;6735;51.456;12.626;2023-05-02T06:43:25;10.10;;;9.17;;
13331;SDS011;6735;51.456;12.626;2023-05-02T06:45:52;11.97;;;9.30;;
13331;SDS011;6735;51.456;12.626;2023-05-02T06:48:18;11.03;;;8.40;;
13331;SDS011;6735;51.456;12.626;2023-05-02T06:50:44;9.97;;;8.60;;
13331;SDS011;6735;51.456;12.626;2023-05-02T06:53:09;10.53;;;9.43;;
13331;SDS011;6735;51.456;12.626;2023-05-02T06:55:35;10.13;;;9.17;;
13331;SDS011;6735;51.456;12.626;2023-05-02T06:58:00;11.30;;;8.67;;
13331;SDS011;6735;51.456;12.626;2023-05-02T07:00:26;9.23;;;8.33;;
13331;SDS011;6735;51.456;12.626;2023-05-02T07:02:51;11.00;;;8.97;;
13331;SDS011;6735;51.456;12.626;2023-05-02T07:05:17;9.97;;;8.93;;
13331;SDS011;6735;51.456;12.626;2023-05-02T07:07:43;10.33;;;9.13;;
13331;SDS011;6735;51.456;12.626;2023-05-02T07:10:09;12.67;;;9.57;;
13331;SDS011;6735;51.456;12.626;2023-05-02T07:12:35;11.30;;;10.07;;
13331;SDS011;6735;51.456;12.626;2023-05-02T07:15:00;11.97;;;10.00;;
13331;SDS011;6735;51.456;12.626;2023-05-02T07:17:26;13.43;;;10.70;;
13331;SDS011;6735;51.456;12.626;2023-05-02T07:19:52;11.80;;;10.37;;
13331;SDS011;6735;51.456;12.626;2023-05-02T07:22:17;13.33;;;11.50;;
13331;SDS011;6735;51.456;12.626;2023-05-02T07:24:43;13.47;;;11.17;;
13331;SDS011;6735;51.456;12.626;2023-05-02T07:27:09;13.57;;;10.30;;
13331;SDS011;6735;51.456;12.626;2023-05-02T07:29:35;15.47;;;10.47;;
13331;SDS011;6735;51.456;12.626;2023-05-02T07:32:01;12.27;;;10.93;;
13331;SDS011;6735;51.456;12.626;2023-05-02T07:34:27;13.63;;;10.60;;
13331;SDS011;6735;51.456;12.626;2023-05-02T07:36:53;12.87;;;10.23;;
13331;SDS011;6735;51.456;12.626;2023-05-02T07:39:18;14.20;;;10.30;;
13331;SDS011;6735;51.456;12.626;2023-05-02T07:41:44;13.23;;;10.30;;
13331;SDS011;6735;51.456;12.626;2023-05-02T07:44:10;13.83;;;10.83;;
13331;SDS011;6735;51.456;12.626;2023-05-02T07:46:35;14.20;;;11.20;;
13331;SDS011;6735;51.456;12.626;2023-05-02T07:49:01;11.33;;;9.97;;
13331;SDS011;6735;51.456;12.626;2023-05-02T07:51:27;14.43;;;11.27;;
13331;SDS011;6735;51.456;12.626;2023-05-02T07:53:53;12.63;;;10.83;;
13331;SDS011;6735;51.456;12.626;2023-05-02T07:56:22;13.60;;;11.83;;
13331;SDS011;6735;51.456;12.626;2023-05-02T07:58:48;12.87;;;11.50;;
13331;SDS011;6735;51.456;12.626;2023-05-02T08:01:15;13.03;;;11.73;;
13331;SDS011;6735;51.456;12.626;2023-05-02T08:03:41;13.47;;;12.07;;
13331;SDS011;6735;51.456;12.626;2023-05-02T08:06:06;13.97;;;10.83;;
13331;SDS011;6735;51.456;12.626;2023-05-02T08:08:33;12.83;;;11.33;;
13331;SDS011;6735;51.456;12.626;2023-05-02T08:10:58;12.33;;;11.03;;
13331;SDS011;6735;51.456;12.626;2023-05-02T08:13:24;14.40;;;11.07;;
13331;SDS011;6735;51.456;12.626;2023-05-02T08:15:49;13.10;;;11.00;;
13331;SDS011;6735;51.456;12.626;2023-05-02T08:18:15;14.23;;;10.87;;
13331;SDS011;6735;51.456;12.626;2023-05-02T08:20:41;11.07;;;9.97;;
13331;SDS011;6735;51.456;12.626;2023-05-02T08:23:07;12.83;;;10.13;;
13331;SDS011;6735;51.456;12.626;2023-05-02T08:25:32;12.87;;;11.57;;
13331;SDS011;6735;51.456;12.626;2023-05-02T08:27:58;14.07;;;12.03;;
13331;SDS011;6735;51.456;12.626;2023-05-02T08:30:23;14.73;;;12.83;;
13331;SDS011;6735;51.456;12.626;2023-05-02T08:32:49;15.23;;;13.63;;
13331;SDS011;6735;51.456;12.626;2023-05-02T08:35:14;16.17;;;14.47;;
13331;SDS011;6735;51.456;12.626;2023-05-02T08:37:40;17.53;;;15.63;;
13331;SDS011;6735;51.456;12.626;2023-05-02T08:40:06;19.17;;;16.80;;
13331;SDS011;6735;51.456;12.626;2023-05-02T08:42:36;18.17;;;16.13;;
13331;SDS011;6735;51.456;12.626;2023-05-02T08:45:05;20.53;;;16.53;;
13331;SDS011;6735;51.456;12.626;2023-05-02T08:47:32;19.63;;;17.63;;
13331;SDS011;6735;51.456;12.626;2023-05-02T08:49:59;19.53;;;17.43;;
13331;SDS011;6735;51.456;12.626;2023-05-02T08:52:25;19.40;;;17.40;;
13331;SDS011;6735;51.456;12.626;2023-05-02T08:54:51;21.67;;;18.90;;
13331;SDS011;6735;51.456;12.626;2023-05-02T08:57:17;22.63;;;19.60;;
13331;SDS011;6735;51.456;12.626;2023-05-02T08:59:43;22.87;;;19.83;;
13331;SDS011;6735;51.456;12.626;2023-05-02T09:02:11;22.03;;;19.73;;
13331;SDS011;6735;51.456;12.626;2023-05-02T09:04:47;24.13;;;20.30;;
13331;SDS011;6735;51.456;12.626;2023-05-02T09:07:18;25.77;;;20.87;;
13331;SDS011;6735;51.456;12.626;2023-05-02T09:09:44;22.77;;;20.37;;
13331;SDS011;6735;51.456;12.626;2023-05-02T09:12:09;23.80;;;21.37;;
13331;SDS011;6735;51.456;12.626;2023-05-02T09:14:35;24.23;;;21.73;;
13331;SDS011;6735;51.456;12.626;2023-05-02T09:17:00;25.27;;;22.67;;
13331;SDS011;6735;51.456;12.626;2023-05-02T09:19:26;25.53;;;22.93;;
13331;SDS011;6735;51.456;12.626;2023-05-02T09:21:52;27.93;;;24.03;;
13331;SDS011;6735;51.456;12.626;2023-05-02T09:24:24;26.10;;;23.30;;
13331;SDS011;6735;51.456;12.626;2023-05-02T09:27:03;25.87;;;23.10;;
13331;SDS011;6735;51.456;12.626;2023-05-02T09:29:30;24.53;;;21.93;;
13331;SDS011;6735;51.456;12.626;2023-05-02T09:32:01;25.27;;;22.60;;
13331;SDS011;6735;51.456;12.626;2023-05-02T09:34:27;24.47;;;21.67;;
13331;SDS011;6735;51.456;12.626;2023-05-02T09:36:53;24.87;;;22.37;;
13331;SDS011;6735;51.456;12.626;2023-05-02T09:39:22;23.53;;;21.00;;
13331;SDS011;6735;51.456;12.626;2023-05-02T09:41:49;21.63;;;19.33;;
13331;SDS011;6735;51.456;12.626;2023-05-02T09:44:16;21.87;;;19.57;;
13331;SDS011;6735;51.456;12.626;2023-05-02T09:46:46;23.20;;;19.40;;
13331;SDS011;6735;51.456;12.626;2023-05-02T09:49:13;19.67;;;17.67;;
13331;SDS011;6735;51.456;12.626;2023-05-02T09:51:42;22.20;;;18.40;;
13331;SDS011;6735;51.456;12.626;2023-05-02T09:54:08;19.23;;;17.33;;
13331;SDS011;6735;51.456;12.626;2023-05-02T09:56:52;19.33;;;17.37;;
13331;SDS011;6735;51.456;12.626;2023-05-02T09:59:21;18.90;;;16.93;;
13331;SDS011;6735;51.456;12.626;2023-05-02T10:02:03;18.60;;;16.67;;
13331;SDS011;6735;51.456;12.626;2023-05-02T10:04:31;20.03;;;15.97;;
13331;SDS011;6735;51.456;12.626;2023-05-02T10:06:57;17.53;;;15.77;;
13331;SDS011;6735;51.456;12.626;2023-05-02T10:09:24;18.97;;;16.97;;
13331;SDS011;6735;51.456;12.626;2023-05-02T10:11:52;16.87;;;15.27;;
13331;SDS011;6735;51.456;12.626;2023-05-02T10:14:19;16.60;;;14.87;;
13331;SDS011;6735;51.456;12.626;2023-05-02T10:16:59;15.87;;;14.37;;
13331;SDS011;6735;51.456;12.626;2023-05-02T10:19:50;14.37;;;13.07;;
13331;SDS011;6735;51.456;12.626;2023-05-02T10:22:32;14.87;;;13.37;;
13331;SDS011;6735;51.456;12.626;2023-05-02T10:24:58;15.93;;;14.33;;
13331;SDS011;6735;51.456;12.626;2023-05-02T10:27:25;15.70;;;14.20;;
13331;SDS011;6735;51.456;12.626;2023-05-02T10:29:53;15.83;;;13.70;;
13331;SDS011;6735;51.456;12.626;2023-05-02T10:32:19;15.97;;;14.20;;
13331;SDS011;6735;51.456;12.626;2023-05-02T10:34:47;14.10;;;12.60;;
13331;SDS011;6735;51.456;12.626;2023-05-02T10:37:15;11.77;;;10.57;;
13331;SDS011;6735;51.456;12.626;2023-05-02T10:39:42;13.07;;;11.53;;
13331;SDS011;6735;51.456;12.626;2023-05-02T10:42:07;11.07;;;9.97;;
13331;SDS011;6735;51.456;12.626;2023-05-02T10:44:34;9.77;;;8.87;;
13331;SDS011;6735;51.456;12.626;2023-05-02T10:47:17;10.60;;;9.60;;
13331;SDS011;6735;51.456;12.626;2023-05-02T10:49:56;10.13;;;9.20;;
13331;SDS011;6735;51.456;12.626;2023-05-02T10:52:33;7.90;;;7.10;;
13331;SDS011;6735;51.456;12.626;2023-05-02T11:00:29;8.43;;;6.77;;
13331;SDS011;6735;51.456;12.626;2023-05-02T11:02:57;7.13;;;6.40;;
13331;SDS011;6735;51.456;12.626;2023-05-02T11:05:23;6.50;;;5.90;;
13331;SDS011;6735;51.456;12.626;2023-05-02T11:07:53;6.67;;;6.07;;
13331;SDS011;6735;51.456;12.626;2023-05-02T11:10:41;6.00;;;5.50;;
13331;SDS011;6735;51.456;12.626;2023-05-02T11:13:09;4.97;;;4.40;;
13331;SDS011;6735;51.456;12.626;2023-05-02T11:18:07;6.00;;;5.40;;
13331;SDS011;6735;51.456;12.626;2023-05-02T11:20:37;6.37;;;5.87;;
13331;SDS011;6735;51.456;12.626;2023-05-02T11:25:39;6.70;;;5.93;;
13331;SDS011;6735;51.456;12.626;2023-05-02T11:30:55;7.67;;;6.20;;
13331;SDS011;6735;51.456;12.626;2023-05-02T11:33:21;6.27;;;5.73;;
13331;SDS011;6735;51.456;12.626;2023-05-02T11:35:46;6.63;;;6.03;;
13331;SDS011;6735;51.456;12.626;2023-05-02T11:38:13;6.83;;;5.90;;
13331;SDS011;6735;51.456;12.626;2023-05-02T11:40:40;7.13;;;6.50;;
13331;SDS011;6735;51.456;12.626;2023-05-02T11:43:14;7.50;;;6.80;;
13331;SDS011;6735;51.456;12.626;2023-05-02T11:45:40;7.33;;;6.50;;
13331;SDS011;6735;51.456;12.626;2023-05-02T11:48:06;7.90;;;7.20;;
13331;SDS011;6735;51.456;12.626;2023-05-02T11:50:33;7.37;;;6.67;;
13331;SDS011;6735;51.456;12.626;2023-05-02T11:53:07;7.00;;;6.40;;
13331;SDS011;6735;51.456;12.626;2023-05-02T11:55:36;11.37;;;10.37;;
13331;SDS011;6735;51.456;12.626;2023-05-02T11:58:02;13.27;;;11.97;;
13331;SDS011;6735;51.456;12.626;2023-05-02T12:00:27;14.47;;;12.97;;
13331;SDS011;6735;51.456;12.626;2023-05-02T12:02:53;12.67;;;11.60;;
13331;SDS011;6735;51.456;12.626;2023-05-02T12:05:26;12.33;;;11.13;;
13331;SDS011;6735;51.456;12.626;2023-05-02T12:07:53;13.03;;;11.63;;
13331;SDS011;6735;51.456;12.626;2023-05-02T12:10:19;12.83;;;11.63;;
13331;SDS011;6735;51.456;12.626;2023-05-02T12:12:44;13.67;;;12.27;;
13331;SDS011;6735;51.456;12.626;2023-05-02T12:15:10;12.77;;;11.57;;
13331;SDS011;6735;51.456;12.626;2023-05-02T12:17:37;12.53;;;11.33;;
13331;SDS011;6735;51.456;12.626;2023-05-02T12:20:10;13.60;;;12.30;;
13331;SDS011;6735;51.456;12.626;2023-05-02T12:22:36;14.10;;;12.70;;
13331;SDS011;6735;51.456;12.626;2023-05-02T12:25:03;15.43;;;13.83;;
13331;SDS011;6735;51.456;12.626;2023-05-02T12:27:29;13.50;;;12.20;;
13331;SDS011;6735;51.456;12.626;2023-05-02T12:29:57;11.50;;;10.40;;
13331;SDS011;6735;51.456;12.626;2023-05-02T12:32:32;11.37;;;10.30;;
13331;SDS011;6735;51.456;12.626;2023-05-02T12:35:00;13.10;;;11.70;;
13331;SDS011;6735;51.456;12.626;2023-05-02T12:37:27;12.00;;;10.37;;
13331;SDS011;6735;51.456;12.626;2023-05-02T12:39:53;11.07;;;10.07;;
13331;SDS011;6735;51.456;12.626;2023-05-02T12:42:20;11.73;;;10.40;;
13331;SDS011;6735;51.456;12.626;2023-05-02T12:44:48;10.50;;;9.50;;
13331;SDS011;6735;51.456;12.626;2023-05-02T12:47:18;10.33;;;9.43;;
13331;SDS011;6735;51.456;12.626;2023-05-02T12:52:18;9.77;;;8.97;;
13331;SDS011;6735;51.456;12.626;2023-05-02T12:54:44;10.50;;;9.60;;
13331;SDS011;6735;51.456;12.626;2023-05-02T12:57:20;10.57;;;9.50;;
13331;SDS011;6735;51.456;12.626;2023-05-02T12:59:47;10.00;;;9.10;;
13331;SDS011;6735;51.456;12.626;2023-05-02T13:02:16;9.47;;;8.40;;
13331;SDS011;6735;51.456;12.626;2023-05-02T13:04:41;10.10;;;8.20;;
13331;SDS011;6735;51.456;12.626;2023-05-02T13:07:06;8.80;;;8.00;;
13331;SDS011;6735;51.456;12.626;2023-05-02T13:09:32;8.77;;;7.87;;
13331;SDS011;6735;51.456;12.626;2023-05-02T13:11:57;7.90;;;7.20;;
13331;SDS011;6735;51.456;12.626;2023-05-02T13:14:26;8.73;;;7.83;;
13331;SDS011;6735;51.456;12.626;2023-05-02T13:16:51;7.33;;;6.70;;
13331;SDS011;6735;51.456;12.626;2023-05-02T13:19:18;7.37;;;6.67;;
13331;SDS011;6735;51.456;12.626;2023-05-02T13:21:44;6.27;;;5.77;;
13331;SDS011;6735;51.456;12.626;2023-05-02T13:24:10;7.03;;;6.17;;
13331;SDS011;6735;51.456;12.626;2023-05-02T13:26:35;7.33;;;5.33;;
13331;SDS011;6735;51.456;12.626;2023-05-02T13:29:01;4.77;;;4.23;;
13331;SDS011;6735;51.456;12.626;2023-05-02T13:31:26;5.43;;;4.47;;
13331;SDS011;6735;51.456;12.626;2023-05-02T13:33:52;5.53;;;4.90;;
13331;SDS011;6735;51.456;12.626;2023-05-02T13:36:17;8.77;;;5.20;;
13331;SDS011;6735;51.456;12.626;2023-05-02T13:38:43;8.23;;;5.10;;
13331;SDS011;6735;51.456;12.626;2023-05-02T13:41:08;7.13;;;6.10;;
13331;SDS011;6735;51.456;12.626;2023-05-02T13:43:34;7.37;;;5.43;;
13331;SDS011;6735;51.456;12.626;2023-05-02T13:45:59;10.20;;;5.70;;
13331;SDS011;6735;51.456;12.626;2023-05-02T13:48:24;8.03;;;6.00;;
13331;SDS011;6735;51.456;12.626;2023-05-02T13:50:50;7.53;;;6.03;;
13331;SDS011;6735;51.456;12.626;2023-05-02T13:53:15;8.13;;;6.10;;
13331;SDS011;6735;51.456;12.626;2023-05-02T13:55:41;11.13;;;6.67;;
13331;SDS011;6735;51.456;12.626;2023-05-02T13:58:06;7.07;;;5.90;;
13331;SDS011;6735;51.456;12.626;2023-05-02T14:00:32;9.70;;;5.53;;
13331;SDS011;6735;51.456;12.626;2023-05-02T14:02:58;6.87;;;5.00;;
13331;SDS011;6735;51.456;12.626;2023-05-02T14:05:24;7.47;;;4.70;;
13331;SDS011;6735;51.456;12.626;2023-05-02T14:07:49;5.77;;;5.03;;
13331;SDS011;6735;51.456;12.626;2023-05-02T14:10:15;7.13;;;4.50;;
13331;SDS011;6735;51.456;12.626;2023-05-02T14:12:40;6.80;;;5.47;;
13331;SDS011;6735;51.456;12.626;2023-05-02T14:15:06;8.07;;;5.30;;
13331;SDS011;6735;51.456;12.626;2023-05-02T14:17:32;7.63;;;5.00;;
13331;SDS011;6735;51.456;12.626;2023-05-02T14:19:58;4.87;;;4.37;;
13331;SDS011;6735;51.456;12.626;2023-05-02T14:22:23;5.37;;;4.43;;
13331;SDS011;6735;51.456;12.626;2023-05-02T14:24:48;6.73;;;4.30;;
13331;SDS011;6735;51.456;12.626;2023-05-02T14:27:15;6.60;;;4.00;;
13331;SDS011;6735;51.456;12.626;2023-05-02T14:29:46;8.97;;;4.20;;
13331;SDS011;6735;51.456;12.626;2023-05-02T14:32:12;8.90;;;4.10;;
13331;SDS011;6735;51.456;12.626;2023-05-02T14:34:38;6.10;;;4.00;;
13331;SDS011;6735;51.456;12.626;2023-05-02T14:37:04;5.83;;;4.10;;
13331;SDS011;6735;51.456;12.626;2023-05-02T14:39:30;7.43;;;4.37;;
13331;SDS011;6735;51.456;12.626;2023-05-02T14:41:55;7.97;;;4.47;;
13331;SDS011;6735;51.456;12.626;2023-05-02T14:44:21;7.97;;;4.50;;
13331;SDS011;6735;51.456;12.626;2023-05-02T14:46:46;8.33;;;4.30;;
13331;SDS011;6735;51.456;12.626;2023-05-02T14:49:12;7.07;;;4.23;;
13331;SDS011;6735;51.456;12.626;2023-05-02T14:51:38;7.07;;;4.17;;
13331;SDS011;6735;51.456;12.626;2023-05-02T14:54:03;6.30;;;4.30;;
13331;SDS011;6735;51.456;12.626;2023-05-02T14:56:30;6.83;;;3.97;;
13331;SDS011;6735;51.456;12.626;2023-05-02T14:58:56;5.43;;;3.80;;
13331;SDS011;6735;51.456;12.626;2023-05-02T15:01:21;8.93;;;4.13;;
13331;SDS011;6735;51.456;12.626;2023-05-02T15:03:47;9.57;;;3.90;;
13331;SDS011;6735;51.456;12.626;2023-05-02T15:06:13;7.90;;;4.30;;